sensor_id;sensor_type;location;lat;lon;timestamp;P1;durP1;ratioP1;P2;durP2;ratioP2
71196;SDS011;58918;51.652;4.864;2023-08-24T00:01:25;4.55;;;1.27;;
71196;SDS011;58918;51.652;4.864;2023-08-24T00:03:52;5.32;;;1.10;;
71196;SDS011;58918;51.652;4.864;2023-08-24T00:06:19;2.47;;;0.90;;
71196;SDS011;58918;51.652;4.864;2023-08-24T00:08:47;3.95;;;1.38;;
71196;SDS011;58918;51.652;4.864;2023-08-24T00:11:14;2.70;;;1.15;;
71196;SDS011;58918;51.652;4.864;2023-08-24T00:13:42;4.40;;;1.30;;
71196;SDS011;58918;51.652;4.864;2023-08-24T00:16:20;3.42;;;1.15;;
71196;SDS011;58918;51.652;4.864;2023-08-24T00:18:47;2.25;;;1.00;;
71196;SDS011;58918;51.652;4.864;2023-08-24T00:21:15;3.95;;;1.20;;
71196;SDS011;58918;51.652;4.864;2023-08-24T00:23:49;2.72;;;1.08;;
71196;SDS011;58918;51.652;4.864;2023-08-24T00:26:17;5.22;;;1.40;;
71196;SDS011;58918;51.652;4.864;2023-08-24T00:28:44;2.63;;;0.90;;
71196;SDS011;58918;51.652;4.864;2023-08-24T00:31:12;3.60;;;1.20;;
71196;SDS011;58918;51.652;4.864;2023-08-24T00:33:39;3.78;;;1.20;;
71196;SDS011;58918;51.652;4.864;2023-08-24T00:36:08;3.55;;;1.30;;
71196;SDS011;58918;51.652;4.864;2023-08-24T00:38:35;4.28;;;1.13;;
71196;SDS011;58918;51.652;4.864;2023-08-24T00:41:03;4.15;;;1.45;;
71196;SDS011;58918;51.652;4.864;2023-08-24T00:43:31;3.70;;;1.30;;
71196;SDS011;58918;51.652;4.864;2023-08-24T00:45:59;2.95;;;1.20;;
71196;SDS011;58918;51.652;4.864;2023-08-24T00:48:27;3.15;;;1.23;;
71196;SDS011;58918;51.652;4.864;2023-08-24T00:50:56;5.00;;;0.93;;
71196;SDS011;58918;51.652;4.864;2023-08-24T00:53:23;5.07;;;1.48;;
71196;SDS011;58918;51.652;4.864;2023-08-24T00:55:52;3.05;;;1.15;;
71196;SDS011;58918;51.652;4.864;2023-08-24T00:58:20;3.13;;;1.20;;
71196;SDS011;58918;51.652;4.864;2023-08-24T01:00:51;3.47;;;1.25;;
71196;SDS011;58918;51.652;4.864;2023-08-24T01:03:22;3.55;;;1.25;;
71196;SDS011;58918;51.652;4.864;2023-08-24T01:05:51;4.18;;;1.40;;
71196;SDS011;58918;51.652;4.864;2023-08-24T01:08:18;3.25;;;1.00;;
71196;SDS011;58918;51.652;4.864;2023-08-24T01:13:20;4.28;;;1.40;;
71196;SDS011;58918;51.652;4.864;2023-08-24T01:15:51;5.10;;;1.40;;
71196;SDS011;58918;51.652;4.864;2023-08-24T01:18:22;3.88;;;1.40;;
71196;SDS011;58918;51.652;4.864;2023-08-24T01:20:52;4.10;;;1.50;;
71196;SDS011;58918;51.652;4.864;2023-08-24T01:25:52;4.72;;;1.30;;
71196;SDS011;58918;51.652;4.864;2023-08-24T01:28:19;4.85;;;1.42;;
71196;SDS011;58918;51.652;4.864;2023-08-24T01:30:48;2.72;;;1.15;;
71196;SDS011;58918;51.652;4.864;2023-08-24T01:33:15;3.78;;;1.30;;
71196;SDS011;58918;51.652;4.864;2023-08-24T01:35:42;3.53;;;1.20;;
71196;SDS011;58918;51.652;4.864;2023-08-24T01:38:09;2.88;;;1.10;;
71196;SDS011;58918;51.652;4.864;2023-08-24T01:40:42;4.07;;;1.20;;
71196;SDS011;58918;51.652;4.864;2023-08-24T01:43:12;4.60;;;1.38;;
71196;SDS011;58918;51.652;4.864;2023-08-24T01:45:43;3.97;;;1.40;;
71196;SDS011;58918;51.652;4.864;2023-08-24T01:48:11;5.35;;;1.20;;
71196;SDS011;58918;51.652;4.864;2023-08-24T01:50:39;4.80;;;1.40;;
71196;SDS011;58918;51.652;4.864;2023-08-24T01:53:07;4.28;;;1.30;;
71196;SDS011;58918;51.652;4.864;2023-08-24T01:55:34;3.25;;;1.10;;
71196;SDS011;58918;51.652;4.864;2023-08-24T01:58:01;4.45;;;1.30;;
71196;SDS011;58918;51.652;4.864;2023-08-24T02:00:29;3.10;;;1.30;;
71196;SDS011;58918;51.652;4.864;2023-08-24T02:02:56;3.75;;;1.17;;
71196;SDS011;58918;51.652;4.864;2023-08-24T02:05:24;5.78;;;1.40;;
71196;SDS011;58918;51.652;4.864;2023-08-24T02:07:53;3.88;;;1.25;;
71196;SDS011;58918;51.652;4.864;2023-08-24T02:10:20;3.72;;;1.25;;
71196;SDS011;58918;51.652;4.864;2023-08-24T02:12:48;4.15;;;1.42;;
71196;SDS011;58918;51.652;4.864;2023-08-24T02:15:15;4.78;;;1.40;;
71196;SDS011;58918;51.652;4.864;2023-08-24T02:17:42;4.40;;;1.10;;
71196;SDS011;58918;51.652;4.864;2023-08-24T02:20:10;4.60;;;1.10;;
71196;SDS011;58918;51.652;4.864;2023-08-24T02:22:38;4.28;;;1.48;;
71196;SDS011;58918;51.652;4.864;2023-08-24T02:25:05;3.72;;;1.10;;
71196;SDS011;58918;51.652;4.864;2023-08-24T02:27:32;4.53;;;1.40;;
71196;SDS011;58918;51.652;4.864;2023-08-24T02:30:00;5.13;;;1.73;;
71196;SDS011;58918;51.652;4.864;2023-08-24T02:32:27;3.85;;;1.25;;
71196;SDS011;58918;51.652;4.864;2023-08-24T02:34:54;3.75;;;1.40;;
71196;SDS011;58918;51.652;4.864;2023-08-24T02:37:22;4.72;;;1.33;;
71196;SDS011;58918;51.652;4.864;2023-08-24T02:39:50;5.40;;;1.42;;
71196;SDS011;58918;51.652;4.864;2023-08-24T02:42:17;3.92;;;1.50;;
71196;SDS011;58918;51.652;4.864;2023-08-24T02:44:44;4.50;;;1.30;;
71196;SDS011;58918;51.652;4.864;2023-08-24T02:47:11;4.85;;;1.65;;
71196;SDS011;58918;51.652;4.864;2023-08-24T02:49:38;4.10;;;1.30;;
71196;SDS011;58918;51.652;4.864;2023-08-24T02:52:06;3.47;;;1.30;;
71196;SDS011;58918;51.652;4.864;2023-08-24T02:54:33;4.55;;;1.50;;
71196;SDS011;58918;51.652;4.864;2023-08-24T02:57:01;3.58;;;1.23;;
71196;SDS011;58918;51.652;4.864;2023-08-24T02:59:28;3.92;;;1.60;;
71196;SDS011;58918;51.652;4.864;2023-08-24T03:01:55;4.78;;;1.40;;
71196;SDS011;58918;51.652;4.864;2023-08-24T03:04:22;3.63;;;1.20;;
71196;SDS011;58918;51.652;4.864;2023-08-24T03:06:49;4.85;;;1.42;;
71196;SDS011;58918;51.652;4.864;2023-08-24T03:09:17;4.05;;;1.52;;
71196;SDS011;58918;51.652;4.864;2023-08-24T03:11:44;4.32;;;1.33;;
71196;SDS011;58918;51.652;4.864;2023-08-24T03:14:11;4.32;;;1.60;;
71196;SDS011;58918;51.652;4.864;2023-08-24T03:16:38;3.67;;;1.60;;
71196;SDS011;58918;51.652;4.864;2023-08-24T03:19:06;4.68;;;1.48;;
71196;SDS011;58918;51.652;4.864;2023-08-24T03:21:33;3.90;;;1.52;;
71196;SDS011;58918;51.652;4.864;2023-08-24T03:24:00;9.45;;;2.15;;
71196;SDS011;58918;51.652;4.864;2023-08-24T03:26:30;3.67;;;1.30;;
71196;SDS011;58918;51.652;4.864;2023-08-24T03:28:57;3.92;;;1.15;;
71196;SDS011;58918;51.652;4.864;2023-08-24T03:31:24;4.05;;;1.75;;
71196;SDS011;58918;51.652;4.864;2023-08-24T03:33:52;3.55;;;1.40;;
71196;SDS011;58918;51.652;4.864;2023-08-24T03:36:19;3.05;;;1.40;;
71196;SDS011;58918;51.652;4.864;2023-08-24T03:38:47;4.00;;;1.35;;
71196;SDS011;58918;51.652;4.864;2023-08-24T03:41:14;3.28;;;1.40;;
71196;SDS011;58918;51.652;4.864;2023-08-24T03:43:41;3.88;;;1.90;;
71196;SDS011;58918;51.652;4.864;2023-08-24T03:46:08;3.88;;;1.60;;
71196;SDS011;58918;51.652;4.864;2023-08-24T03:48:36;3.72;;;1.40;;
71196;SDS011;58918;51.652;4.864;2023-08-24T03:51:03;5.20;;;1.67;;
71196;SDS011;58918;51.652;4.864;2023-08-24T03:53:30;4.68;;;1.20;;
71196;SDS011;58918;51.652;4.864;2023-08-24T03:55:58;3.30;;;1.38;;
71196;SDS011;58918;51.652;4.864;2023-08-24T03:58:25;4.15;;;1.30;;
71196;SDS011;58918;51.652;4.864;2023-08-24T04:00:53;4.95;;;1.52;;
71196;SDS011;58918;51.652;4.864;2023-08-24T04:03:20;3.40;;;1.30;;
71196;SDS011;58918;51.652;4.864;2023-08-24T04:05:48;3.33;;;1.25;;
71196;SDS011;58918;51.652;4.864;2023-08-24T04:08:15;3.70;;;1.33;;
71196;SDS011;58918;51.652;4.864;2023-08-24T04:10:44;5.90;;;1.65;;
71196;SDS011;58918;51.652;4.864;2023-08-24T04:13:11;4.00;;;1.30;;
71196;SDS011;58918;51.652;4.864;2023-08-24T04:15:38;4.65;;;1.90;;
71196;SDS011;58918;51.652;4.864;2023-08-24T04:18:05;5.07;;;1.40;;
71196;SDS011;58918;51.652;4.864;2023-08-24T04:20:33;3.92;;;1.45;;
71196;SDS011;58918;51.652;4.864;2023-08-24T04:23:01;5.03;;;1.50;;
71196;SDS011;58918;51.652;4.864;2023-08-24T04:25:31;4.72;;;1.73;;
71196;SDS011;58918;51.652;4.864;2023-08-24T04:27:59;4.38;;;1.80;;
71196;SDS011;58918;51.652;4.864;2023-08-24T04:30:26;3.03;;;1.27;;
71196;SDS011;58918;51.652;4.864;2023-08-24T04:32:53;4.35;;;2.00;;
71196;SDS011;58918;51.652;4.864;2023-08-24T04:35:20;3.70;;;1.30;;
71196;SDS011;58918;51.652;4.864;2023-08-24T04:37:47;3.60;;;1.40;;
71196;SDS011;58918;51.652;4.864;2023-08-24T04:40:15;5.50;;;1.52;;
71196;SDS011;58918;51.652;4.864;2023-08-24T04:42:42;3.95;;;1.45;;
71196;SDS011;58918;51.652;4.864;2023-08-24T04:45:10;6.07;;;1.67;;
71196;SDS011;58918;51.652;4.864;2023-08-24T04:47:37;4.13;;;1.48;;
71196;SDS011;58918;51.652;4.864;2023-08-24T04:50:05;2.85;;;1.20;;
71196;SDS011;58918;51.652;4.864;2023-08-24T04:52:32;5.97;;;1.70;;
71196;SDS011;58918;51.652;4.864;2023-08-24T04:55:01;3.92;;;1.38;;
71196;SDS011;58918;51.652;4.864;2023-08-24T04:59:56;5.95;;;1.15;;
71196;SDS011;58918;51.652;4.864;2023-08-24T05:02:24;3.95;;;1.35;;
71196;SDS011;58918;51.652;4.864;2023-08-24T05:04:51;3.47;;;1.40;;
71196;SDS011;58918;51.652;4.864;2023-08-24T05:07:18;4.30;;;1.73;;
71196;SDS011;58918;51.652;4.864;2023-08-24T05:09:47;6.18;;;1.70;;
71196;SDS011;58918;51.652;4.864;2023-08-24T05:12:15;3.75;;;1.40;;
71196;SDS011;58918;51.652;4.864;2023-08-24T05:14:42;5.32;;;1.70;;
71196;SDS011;58918;51.652;4.864;2023-08-24T05:17:09;4.88;;;1.40;;
71196;SDS011;58918;51.652;4.864;2023-08-24T05:19:36;4.10;;;1.40;;
71196;SDS011;58918;51.652;4.864;2023-08-24T05:22:03;3.80;;;1.55;;
71196;SDS011;58918;51.652;4.864;2023-08-24T05:24:31;3.67;;;1.40;;
71196;SDS011;58918;51.652;4.864;2023-08-24T05:26:58;4.05;;;1.42;;
71196;SDS011;58918;51.652;4.864;2023-08-24T05:29:25;4.28;;;1.80;;
71196;SDS011;58918;51.652;4.864;2023-08-24T05:31:52;4.43;;;1.58;;
71196;SDS011;58918;51.652;4.864;2023-08-24T05:34:19;3.88;;;1.60;;
71196;SDS011;58918;51.652;4.864;2023-08-24T05:36:47;4.00;;;1.40;;
71196;SDS011;58918;51.652;4.864;2023-08-24T05:39:14;3.28;;;1.25;;
71196;SDS011;58918;51.652;4.864;2023-08-24T05:41:41;4.35;;;1.48;;
71196;SDS011;58918;51.652;4.864;2023-08-24T05:44:08;4.28;;;1.40;;
71196;SDS011;58918;51.652;4.864;2023-08-24T05:46:35;4.53;;;1.65;;
71196;SDS011;58918;51.652;4.864;2023-08-24T05:49:03;4.15;;;1.83;;
71196;SDS011;58918;51.652;4.864;2023-08-24T05:51:30;4.63;;;1.80;;
71196;SDS011;58918;51.652;4.864;2023-08-24T05:53:57;6.03;;;1.95;;
71196;SDS011;58918;51.652;4.864;2023-08-24T05:56:24;3.95;;;1.83;;
71196;SDS011;58918;51.652;4.864;2023-08-24T05:58:52;4.30;;;1.65;;
71196;SDS011;58918;51.652;4.864;2023-08-24T06:01:19;5.82;;;2.00;;
71196;SDS011;58918;51.652;4.864;2023-08-24T06:03:46;4.80;;;2.10;;
71196;SDS011;58918;51.652;4.864;2023-08-24T06:06:13;4.63;;;1.77;;
71196;SDS011;58918;51.652;4.864;2023-08-24T06:08:41;5.63;;;1.77;;
71196;SDS011;58918;51.652;4.864;2023-08-24T06:11:08;6.82;;;2.38;;
71196;SDS011;58918;51.652;4.864;2023-08-24T06:13:35;4.75;;;2.00;;
71196;SDS011;58918;51.652;4.864;2023-08-24T06:16:03;3.72;;;1.60;;
71196;SDS011;58918;51.652;4.864;2023-08-24T06:18:30;5.03;;;2.00;;
71196;SDS011;58918;51.652;4.864;2023-08-24T06:20:57;7.53;;;2.47;;
71196;SDS011;58918;51.652;4.864;2023-08-24T06:23:24;4.32;;;1.77;;
71196;SDS011;58918;51.652;4.864;2023-08-24T06:25:51;4.20;;;1.65;;
71196;SDS011;58918;51.652;4.864;2023-08-24T06:28:19;6.28;;;2.15;;
71196;SDS011;58918;51.652;4.864;2023-08-24T06:30:46;5.65;;;1.80;;
71196;SDS011;58918;51.652;4.864;2023-08-24T06:33:16;5.03;;;2.30;;
71196;SDS011;58918;51.652;4.864;2023-08-24T06:35:43;6.22;;;2.28;;
71196;SDS011;58918;51.652;4.864;2023-08-24T06:38:10;5.13;;;1.90;;
71196;SDS011;58918;51.652;4.864;2023-08-24T06:40:38;6.57;;;2.33;;
71196;SDS011;58918;51.652;4.864;2023-08-24T06:43:05;6.20;;;2.30;;
71196;SDS011;58918;51.652;4.864;2023-08-24T06:45:32;4.60;;;2.35;;
71196;SDS011;58918;51.652;4.864;2023-08-24T06:48:00;5.63;;;2.53;;
71196;SDS011;58918;51.652;4.864;2023-08-24T06:50:27;7.03;;;2.30;;
71196;SDS011;58918;51.652;4.864;2023-08-24T06:52:54;5.65;;;2.25;;
71196;SDS011;58918;51.652;4.864;2023-08-24T06:55:21;5.10;;;2.03;;
71196;SDS011;58918;51.652;4.864;2023-08-24T06:57:49;5.18;;;2.20;;
71196;SDS011;58918;51.652;4.864;2023-08-24T07:00:18;7.28;;;2.45;;
71196;SDS011;58918;51.652;4.864;2023-08-24T07:02:50;4.18;;;1.80;;
71196;SDS011;58918;51.652;4.864;2023-08-24T07:05:17;5.07;;;2.30;;
71196;SDS011;58918;51.652;4.864;2023-08-24T07:07:45;7.47;;;2.60;;
71196;SDS011;58918;51.652;4.864;2023-08-24T07:10:13;4.78;;;2.35;;
71196;SDS011;58918;51.652;4.864;2023-08-24T07:12:41;5.75;;;2.35;;
71196;SDS011;58918;51.652;4.864;2023-08-24T07:15:08;6.53;;;3.60;;
71196;SDS011;58918;51.652;4.864;2023-08-24T07:17:35;5.20;;;3.00;;
71196;SDS011;58918;51.652;4.864;2023-08-24T07:20:03;5.75;;;2.45;;
71196;SDS011;58918;51.652;4.864;2023-08-24T07:22:32;9.10;;;2.63;;
71196;SDS011;58918;51.652;4.864;2023-08-24T07:25:00;6.05;;;2.63;;
71196;SDS011;58918;51.652;4.864;2023-08-24T07:27:30;5.53;;;2.60;;
71196;SDS011;58918;51.652;4.864;2023-08-24T07:29:57;6.90;;;3.78;;
71196;SDS011;58918;51.652;4.864;2023-08-24T07:32:28;6.68;;;3.30;;
71196;SDS011;58918;51.652;4.864;2023-08-24T07:34:56;6.18;;;2.60;;
71196;SDS011;58918;51.652;4.864;2023-08-24T07:37:25;5.22;;;2.33;;
71196;SDS011;58918;51.652;4.864;2023-08-24T07:39:53;4.80;;;2.70;;
71196;SDS011;58918;51.652;4.864;2023-08-24T07:42:20;6.72;;;2.42;;
71196;SDS011;58918;51.652;4.864;2023-08-24T07:44:48;6.38;;;2.70;;
71196;SDS011;58918;51.652;4.864;2023-08-24T07:47:15;7.03;;;2.80;;
71196;SDS011;58918;51.652;4.864;2023-08-24T07:49:43;6.35;;;2.92;;
71196;SDS011;58918;51.652;4.864;2023-08-24T07:52:11;4.45;;;2.35;;
71196;SDS011;58918;51.652;4.864;2023-08-24T07:54:39;6.43;;;2.90;;
71196;SDS011;58918;51.652;4.864;2023-08-24T07:57:06;6.47;;;2.50;;
71196;SDS011;58918;51.652;4.864;2023-08-24T07:59:33;5.07;;;2.88;;
71196;SDS011;58918;51.652;4.864;2023-08-24T08:02:01;7.25;;;3.10;;
71196;SDS011;58918;51.652;4.864;2023-08-24T08:04:28;7.25;;;2.53;;
71196;SDS011;58918;51.652;4.864;2023-08-24T08:06:55;6.60;;;2.88;;
71196;SDS011;58918;51.652;4.864;2023-08-24T08:09:22;6.03;;;2.97;;
71196;SDS011;58918;51.652;4.864;2023-08-24T08:11:49;4.93;;;2.42;;
71196;SDS011;58918;51.652;4.864;2023-08-24T08:14:18;5.07;;;2.50;;
71196;SDS011;58918;51.652;4.864;2023-08-24T08:16:46;7.05;;;2.70;;
71196;SDS011;58918;51.652;4.864;2023-08-24T08:19:13;5.88;;;2.60;;
71196;SDS011;58918;51.652;4.864;2023-08-24T08:21:40;6.07;;;2.50;;
71196;SDS011;58918;51.652;4.864;2023-08-24T08:24:08;6.32;;;2.83;;
71196;SDS011;58918;51.652;4.864;2023-08-24T08:26:35;8.43;;;2.50;;
71196;SDS011;58918;51.652;4.864;2023-08-24T08:29:02;5.90;;;2.90;;
71196;SDS011;58918;51.652;4.864;2023-08-24T08:31:29;5.40;;;2.88;;
71196;SDS011;58918;51.652;4.864;2023-08-24T08:33:56;5.80;;;2.50;;
71196;SDS011;58918;51.652;4.864;2023-08-24T08:36:24;5.80;;;3.00;;
71196;SDS011;58918;51.652;4.864;2023-08-24T08:38:51;6.90;;;2.80;;
71196;SDS011;58918;51.652;4.864;2023-08-24T08:41:20;7.85;;;2.90;;
71196;SDS011;58918;51.652;4.864;2023-08-24T08:43:49;9.85;;;2.90;;
71196;SDS011;58918;51.652;4.864;2023-08-24T08:46:16;7.80;;;2.97;;
71196;SDS011;58918;51.652;4.864;2023-08-24T08:48:44;7.25;;;2.70;;
71196;SDS011;58918;51.652;4.864;2023-08-24T08:53:39;5.88;;;2.63;;
71196;SDS011;58918;51.652;4.864;2023-08-24T08:56:06;6.68;;;3.03;;
71196;SDS011;58918;51.652;4.864;2023-08-24T08:58:34;6.68;;;2.83;;
71196;SDS011;58918;51.652;4.864;2023-08-24T09:01:03;5.95;;;2.80;;
71196;SDS011;58918;51.652;4.864;2023-08-24T09:03:32;6.35;;;2.58;;
71196;SDS011;58918;51.652;4.864;2023-08-24T09:05:59;6.10;;;2.90;;
71196;SDS011;58918;51.652;4.864;2023-08-24T09:08:26;8.88;;;3.10;;
71196;SDS011;58918;51.652;4.864;2023-08-24T09:10:54;5.30;;;2.78;;
71196;SDS011;58918;51.652;4.864;2023-08-24T09:13:21;8.07;;;2.50;;
71196;SDS011;58918;51.652;4.864;2023-08-24T09:15:50;6.70;;;3.33;;
71196;SDS011;58918;51.652;4.864;2023-08-24T09:18:19;7.82;;;3.03;;
71196;SDS011;58918;51.652;4.864;2023-08-24T09:20:46;6.03;;;2.50;;
71196;SDS011;58918;51.652;4.864;2023-08-24T09:23:17;4.90;;;2.92;;
71196;SDS011;58918;51.652;4.864;2023-08-24T09:25:47;5.82;;;2.63;;
71196;SDS011;58918;51.652;4.864;2023-08-24T09:28:19;6.07;;;2.90;;
71196;SDS011;58918;51.652;4.864;2023-08-24T09:30:52;5.28;;;2.70;;
71196;SDS011;58918;51.652;4.864;2023-08-24T09:33:20;6.55;;;3.00;;
71196;SDS011;58918;51.652;4.864;2023-08-24T09:35:52;5.88;;;2.90;;
71196;SDS011;58918;51.652;4.864;2023-08-24T09:38:23;7.57;;;2.80;;
71196;SDS011;58918;51.652;4.864;2023-08-24T09:40:51;6.88;;;2.67;;
71196;SDS011;58918;51.652;4.864;2023-08-24T09:43:18;5.63;;;2.90;;
71196;SDS011;58918;51.652;4.864;2023-08-24T09:45:52;5.07;;;2.53;;
71196;SDS011;58918;51.652;4.864;2023-08-24T09:48:20;5.75;;;2.50;;
71196;SDS011;58918;51.652;4.864;2023-08-24T09:50:48;6.78;;;2.33;;
71196;SDS011;58918;51.652;4.864;2023-08-24T09:53:19;5.70;;;2.47;;
71196;SDS011;58918;51.652;4.864;2023-08-24T09:56:00;5.40;;;2.50;;
71196;SDS011;58918;51.652;4.864;2023-08-24T09:58:28;6.72;;;2.75;;
71196;SDS011;58918;51.652;4.864;2023-08-24T10:00:55;6.60;;;2.70;;
71196;SDS011;58918;51.652;4.864;2023-08-24T10:03:26;5.18;;;2.58;;
71196;SDS011;58918;51.652;4.864;2023-08-24T10:05:54;7.03;;;2.63;;
71196;SDS011;58918;51.652;4.864;2023-08-24T10:08:46;9.68;;;2.40;;
71196;SDS011;58918;51.652;4.864;2023-08-24T10:11:16;5.28;;;2.60;;
71196;SDS011;58918;51.652;4.864;2023-08-24T10:16:15;7.45;;;2.40;;
71196;SDS011;58918;51.652;4.864;2023-08-24T10:18:44;4.88;;;2.38;;
71196;SDS011;58918;51.652;4.864;2023-08-24T10:21:13;4.25;;;2.50;;
71196;SDS011;58918;51.652;4.864;2023-08-24T10:23:40;5.82;;;2.60;;
71196;SDS011;58918;51.652;4.864;2023-08-24T10:26:09;5.07;;;2.65;;
71196;SDS011;58918;51.652;4.864;2023-08-24T10:28:38;7.15;;;2.50;;
71196;SDS011;58918;51.652;4.864;2023-08-24T10:31:05;4.60;;;2.47;;
71196;SDS011;58918;51.652;4.864;2023-08-24T10:33:33;4.85;;;2.45;;
71196;SDS011;58918;51.652;4.864;2023-08-24T10:36:05;6.18;;;2.42;;
71196;SDS011;58918;51.652;4.864;2023-08-24T10:38:34;5.57;;;2.42;;
71196;SDS011;58918;51.652;4.864;2023-08-24T10:41:02;5.35;;;2.15;;
71196;SDS011;58918;51.652;4.864;2023-08-24T10:43:34;7.20;;;2.72;;
71196;SDS011;58918;51.652;4.864;2023-08-24T10:46:01;5.68;;;2.53;;
71196;SDS011;58918;51.652;4.864;2023-08-24T10:48:31;6.32;;;2.58;;
71196;SDS011;58918;51.652;4.864;2023-08-24T10:56:15;6.10;;;2.50;;
71196;SDS011;58918;51.652;4.864;2023-08-24T10:58:46;7.90;;;2.97;;
71196;SDS011;58918;51.652;4.864;2023-08-24T11:01:19;7.63;;;3.13;;
71196;SDS011;58918;51.652;4.864;2023-08-24T11:03:56;7.25;;;2.75;;
71196;SDS011;58918;51.652;4.864;2023-08-24T11:06:25;7.55;;;3.60;;
71196;SDS011;58918;51.652;4.864;2023-08-24T11:09:08;6.50;;;2.50;;
71196;SDS011;58918;51.652;4.864;2023-08-24T11:11:41;7.50;;;3.30;;
71196;SDS011;58918;51.652;4.864;2023-08-24T11:14:18;5.72;;;2.65;;
71196;SDS011;58918;51.652;4.864;2023-08-24T11:16:48;6.38;;;3.05;;
71196;SDS011;58918;51.652;4.864;2023-08-24T11:19:16;5.90;;;3.00;;
71196;SDS011;58918;51.652;4.864;2023-08-24T11:21:44;6.95;;;3.10;;
71196;SDS011;58918;51.652;4.864;2023-08-24T11:24:12;6.82;;;2.80;;
71196;SDS011;58918;51.652;4.864;2023-08-24T11:26:41;9.77;;;3.67;;
71196;SDS011;58918;51.652;4.864;2023-08-24T11:31:36;8.80;;;3.67;;
71196;SDS011;58918;51.652;4.864;2023-08-24T11:34:07;8.65;;;3.80;;
71196;SDS011;58918;51.652;4.864;2023-08-24T11:36:47;7.43;;;3.63;;
71196;SDS011;58918;51.652;4.864;2023-08-24T11:39:15;6.88;;;2.80;;
71196;SDS011;58918;51.652;4.864;2023-08-24T11:41:44;7.70;;;3.80;;
71196;SDS011;58918;51.652;4.864;2023-08-24T11:44:11;10.00;;;3.33;;
71196;SDS011;58918;51.652;4.864;2023-08-24T11:46:55;6.40;;;3.00;;
71196;SDS011;58918;51.652;4.864;2023-08-24T11:49:24;5.68;;;2.88;;
71196;SDS011;58918;51.652;4.864;2023-08-24T11:51:51;6.57;;;3.75;;
71196;SDS011;58918;51.652;4.864;2023-08-24T11:54:19;7.15;;;3.67;;
71196;SDS011;58918;51.652;4.864;2023-08-24T11:56:47;11.27;;;4.80;;
71196;SDS011;58918;51.652;4.864;2023-08-24T11:59:15;7.82;;;3.72;;
71196;SDS011;58918;51.652;4.864;2023-08-24T12:01:43;9.63;;;4.30;;
71196;SDS011;58918;51.652;4.864;2023-08-24T12:04:11;8.07;;;4.57;;
71196;SDS011;58918;51.652;4.864;2023-08-24T12:06:38;7.43;;;3.60;;
71196;SDS011;58918;51.652;4.864;2023-08-24T12:09:06;8.93;;;4.00;;
71196;SDS011;58918;51.652;4.864;2023-08-24T12:11:37;9.07;;;4.35;;
71196;SDS011;58918;51.652;4.864;2023-08-24T12:14:07;7.90;;;3.90;;
71196;SDS011;58918;51.652;4.864;2023-08-24T12:16:36;7.32;;;3.55;;
71196;SDS011;58918;51.652;4.864;2023-08-24T12:19:06;6.97;;;3.70;;
71196;SDS011;58918;51.652;4.864;2023-08-24T12:21:34;7.57;;;3.78;;
71196;SDS011;58918;51.652;4.864;2023-08-24T12:24:04;10.45;;;4.03;;
71196;SDS011;58918;51.652;4.864;2023-08-24T12:26:33;7.15;;;2.90;;
71196;SDS011;58918;51.652;4.864;2023-08-24T12:29:07;6.63;;;3.50;;
71196;SDS011;58918;51.652;4.864;2023-08-24T12:31:35;6.05;;;3.20;;
71196;SDS011;58918;51.652;4.864;2023-08-24T12:34:06;6.18;;;3.38;;
71196;SDS011;58918;51.652;4.864;2023-08-24T12:36:38;6.78;;;3.22;;
71196;SDS011;58918;51.652;4.864;2023-08-24T12:39:07;6.05;;;3.20;;
71196;SDS011;58918;51.652;4.864;2023-08-24T12:41:36;5.55;;;3.00;;
71196;SDS011;58918;51.652;4.864;2023-08-24T12:44:04;9.45;;;3.60;;
71196;SDS011;58918;51.652;4.864;2023-08-24T12:46:35;6.88;;;3.40;;
71196;SDS011;58918;51.652;4.864;2023-08-24T12:49:02;8.07;;;2.97;;
71196;SDS011;58918;51.652;4.864;2023-08-24T12:51:30;6.18;;;3.05;;
71196;SDS011;58918;51.652;4.864;2023-08-24T12:53:57;7.13;;;3.30;;
71196;SDS011;58918;51.652;4.864;2023-08-24T12:56:24;10.20;;;3.60;;
71196;SDS011;58918;51.652;4.864;2023-08-24T12:58:51;6.20;;;3.13;;
71196;SDS011;58918;51.652;4.864;2023-08-24T13:01:20;7.07;;;3.30;;
71196;SDS011;58918;51.652;4.864;2023-08-24T13:03:47;6.85;;;2.60;;
71196;SDS011;58918;51.652;4.864;2023-08-24T13:06:18;6.18;;;2.80;;
71196;SDS011;58918;51.652;4.864;2023-08-24T13:08:50;6.10;;;2.70;;
71196;SDS011;58918;51.652;4.864;2023-08-24T13:11:17;6.35;;;2.83;;
71196;SDS011;58918;51.652;4.864;2023-08-24T13:13:45;7.78;;;2.90;;
71196;SDS011;58918;51.652;4.864;2023-08-24T13:16:15;6.20;;;3.00;;
71196;SDS011;58918;51.652;4.864;2023-08-24T13:18:42;6.38;;;2.90;;
71196;SDS011;58918;51.652;4.864;2023-08-24T13:21:09;8.20;;;2.80;;
71196;SDS011;58918;51.652;4.864;2023-08-24T13:23:37;7.95;;;2.60;;
71196;SDS011;58918;51.652;4.864;2023-08-24T13:26:04;7.25;;;2.90;;
71196;SDS011;58918;51.652;4.864;2023-08-24T13:28:31;6.90;;;2.97;;
71196;SDS011;58918;51.652;4.864;2023-08-24T13:30:59;5.97;;;2.70;;
71196;SDS011;58918;51.652;4.864;2023-08-24T13:33:26;6.05;;;2.58;;
71196;SDS011;58918;51.652;4.864;2023-08-24T13:35:53;6.32;;;2.80;;
71196;SDS011;58918;51.652;4.864;2023-08-24T13:38:20;6.53;;;3.58;;
71196;SDS011;58918;51.652;4.864;2023-08-24T13:40:47;5.75;;;2.58;;
71196;SDS011;58918;51.652;4.864;2023-08-24T13:43:16;7.00;;;3.10;;
71196;SDS011;58918;51.652;4.864;2023-08-24T13:45:46;5.60;;;2.78;;
71196;SDS011;58918;51.652;4.864;2023-08-24T13:48:13;7.80;;;3.33;;
71196;SDS011;58918;51.652;4.864;2023-08-24T13:50:41;7.32;;;2.75;;
71196;SDS011;58918;51.652;4.864;2023-08-24T13:53:08;6.85;;;2.42;;
71196;SDS011;58918;51.652;4.864;2023-08-24T13:55:39;6.75;;;2.70;;
71196;SDS011;58918;51.652;4.864;2023-08-24T13:58:07;7.63;;;3.25;;
71196;SDS011;58918;51.652;4.864;2023-08-24T14:00:34;5.40;;;2.75;;
71196;SDS011;58918;51.652;4.864;2023-08-24T14:03:03;5.55;;;3.00;;
71196;SDS011;58918;51.652;4.864;2023-08-24T14:05:31;6.43;;;2.97;;
71196;SDS011;58918;51.652;4.864;2023-08-24T14:07:58;5.65;;;2.60;;
71196;SDS011;58918;51.652;4.864;2023-08-24T14:10:28;5.68;;;2.50;;
71196;SDS011;58918;51.652;4.864;2023-08-24T14:12:56;5.57;;;2.40;;
71196;SDS011;58918;51.652;4.864;2023-08-24T14:15:23;5.13;;;2.45;;
71196;SDS011;58918;51.652;4.864;2023-08-24T14:17:50;5.97;;;2.45;;
71196;SDS011;58918;51.652;4.864;2023-08-24T14:20:18;5.57;;;2.85;;
71196;SDS011;58918;51.652;4.864;2023-08-24T14:22:45;5.63;;;2.70;;
71196;SDS011;58918;51.652;4.864;2023-08-24T14:25:15;4.60;;;2.35;;
71196;SDS011;58918;51.652;4.864;2023-08-24T14:27:42;5.32;;;2.63;;
71196;SDS011;58918;51.652;4.864;2023-08-24T14:30:16;5.03;;;2.42;;
71196;SDS011;58918;51.652;4.864;2023-08-24T14:32:43;6.03;;;2.40;;
71196;SDS011;58918;51.652;4.864;2023-08-24T14:35:15;7.18;;;2.78;;
71196;SDS011;58918;51.652;4.864;2023-08-24T14:37:42;6.80;;;2.42;;
71196;SDS011;58918;51.652;4.864;2023-08-24T14:40:09;6.75;;;2.60;;
71196;SDS011;58918;51.652;4.864;2023-08-24T14:42:38;7.05;;;2.45;;
71196;SDS011;58918;51.652;4.864;2023-08-24T14:45:05;4.90;;;2.70;;
71196;SDS011;58918;51.652;4.864;2023-08-24T14:47:33;5.38;;;2.35;;
71196;SDS011;58918;51.652;4.864;2023-08-24T14:50:00;4.60;;;2.30;;
71196;SDS011;58918;51.652;4.864;2023-08-24T14:52:27;7.65;;;2.42;;
71196;SDS011;58918;51.652;4.864;2023-08-24T14:54:55;4.45;;;2.10;;
71196;SDS011;58918;51.652;4.864;2023-08-24T14:57:22;5.35;;;2.28;;
71196;SDS011;58918;51.652;4.864;2023-08-24T14:59:49;5.65;;;2.30;;
71196;SDS011;58918;51.652;4.864;2023-08-24T15:02:16;7.78;;;2.67;;
71196;SDS011;58918;51.652;4.864;2023-08-24T15:04:44;6.43;;;2.50;;
71196;SDS011;58918;51.652;4.864;2023-08-24T15:07:12;6.35;;;2.30;;
71196;SDS011;58918;51.652;4.864;2023-08-24T15:09:39;4.70;;;1.98;;
71196;SDS011;58918;51.652;4.864;2023-08-24T15:12:06;5.60;;;2.20;;
71196;SDS011;58918;51.652;4.864;2023-08-24T15:14:33;8.00;;;2.15;;